Time;durP1;ratioP1;P1;durP2;ratioP2;P2;SDS_P1;SDS_P2;PMS_P1;PMS_P2;Temp;Humidity;BMP_temperature;BMP_pressure;BME280_temperature;BME280_humidity;BME280_pressure;Samples;Min_cycle;Max_cycle;Signal;HPM_P1;HPM_P2
2023/06/25 08:07:44;;;;;;;3.45;1.90;;;36.10;85.10;;;;;;4935534;29;20228;-68
2023/06/25 08:10:11;;;;;;;2.33;1.85;;;36.40;83.80;;;;;;4937878;29;20300;-68
2023/06/25 08:12:38;;;;;;;2.60;2.00;;;37.00;84.30;;;;;;4926464;29;20587;-68
2023/06/25 08:15:06;;;;;;;2.25;1.95;;;37.20;83.80;;;;;;4918307;29;20741;-69
2023/06/25 08:17:32;;;;;;;3.03;2.03;;;37.50;83.80;;;;;;4918396;29;20224;-69
2023/06/25 08:19:59;;;;;;;2.60;2.05;;;36.90;82.40;;;;;;4913733;29;20557;-70
2023/06/25 08:22:26;;;;;;;2.72;2.22;;;36.10;82.50;;;;;;4917616;29;20808;-70
2023/06/25 08:24:54;;;;;;;2.03;1.73;;;36.30;83.00;;;;;;4918218;29;20212;-70
2023/06/25 08:27:21;;;;;;;3.35;2.00;;;36.30;85.20;;;;;;4918089;29;20216;-69
2023/06/25 08:29:48;;;;;;;4.22;2.35;;;36.30;83.00;;;;;;4917631;29;20206;-69
2023/06/25 08:32:15;;;;;;;3.22;2.20;;;36.30;84.20;;;;;;4918106;29;20225;-73
2023/06/25 08:34:42;;;;;;;2.90;2.20;;;36.70;82.10;;;;;;4913386;29;20209;-71
2023/06/25 08:37:09;;;;;;;3.20;2.20;;;37.00;83.10;;;;;;4916882;29;20312;-69
2023/06/25 08:39:35;;;;;;;4.22;2.28;;;36.30;82.20;;;;;;4916781;29;20296;-70
2023/06/25 08:42:04;;;;;;;3.50;2.20;;;35.60;82.00;;;;;;4916858;29;20264;-71
2023/06/25 08:44:31;;;;;;;3.22;2.40;;;35.00;84.40;;;;;;4915882;29;20205;-70
2023/06/25 08:46:59;;;;;;;2.38;2.00;;;35.30;82.30;;;;;;4916802;29;20304;-72
2023/06/25 08:49:30;;;;;;;2.67;2.10;;;34.80;82.40;;;;;;4916287;29;20333;-70
2023/06/25 08:51:59;;;;;;;2.00;1.77;;;34.50;82.10;;;;;;4916420;29;20236;-71
2023/06/25 08:54:26;;;;;;;2.08;1.88;;;34.40;83.50;;;;;;4917743;29;20209;-71
2023/06/25 08:56:52;;;;;;;3.03;2.28;;;34.90;83.90;;;;;;4917773;29;20248;-74
2023/06/25 08:59:21;;;;;;;3.13;2.15;;;35.00;82.90;;;;;;4917836;29;20292;-73
2023/06/25 09:01:48;;;;;;;2.33;1.90;;;34.70;81.50;;;;;;4917622;29;20596;-75
2023/06/25 09:04:15;;;;;;;3.90;1.95;;;35.20;80.80;;;;;;4917564;29;20210;-74
2023/06/25 09:06:42;;;;;;;2.78;2.10;;;35.30;82.60;;;;;;4917336;29;20584;-73
2023/06/25 09:09:10;;;;;;;2.92;2.00;;;35.00;81.60;;;;;;4917225;29;20214;-75
2023/06/25 09:11:40;;;;;;;3.13;2.05;;;34.90;84.10;;;;;;4917283;29;20634;-72
2023/06/25 09:14:07;;;;;;;2.65;2.00;;;34.90;81.70;;;;;;4917315;29;20213;-72
2023/06/25 09:16:46;;;;;;;2.70;2.13;;;34.90;80.90;;;;;;4917272;29;20590;-72
2023/06/25 09:19:17;;;;;;;2.70;2.10;;;34.70;83.10;;;;;;4916886;29;20621;-72
2023/06/25 09:21:44;;;;;;;2.65;1.83;;;35.20;82.40;;;;;;4916544;29;20237;-73
2023/06/25 09:24:14;;;;;;;3.00;2.25;;;35.40;82.10;;;;;;4917170;29;20303;-73
2023/06/25 09:26:48;;;;;;;2.67;1.92;;;35.50;81.20;;;;;;4917292;29;20205;-78
2023/06/25 09:29:15;;;;;;;3.00;2.08;;;35.70;81.60;;;;;;4916807;29;20210;-74
2023/06/25 09:31:44;;;;;;;2.33;2.10;;;36.00;83.30;;;;;;4917139;29;20229;-73
2023/06/25 09:34:14;;;;;;;2.00;1.80;;;35.10;80.20;;;;;;4917230;29;20649;-73
2023/06/25 09:36:41;;;;;;;3.10;2.20;;;34.90;81.70;;;;;;4917146;29;20229;-73
2023/06/25 09:39:10;;;;;;;2.85;2.10;;;34.90;83.00;;;;;;4917004;29;20609;-71
2023/06/25 09:41:40;;;;;;;2.47;2.10;;;34.50;83.60;;;;;;4916968;29;20252;-71
2023/06/25 09:44:07;;;;;;;2.70;1.80;;;34.70;83.30;;;;;;4916618;29;20581;-71
2023/06/25 09:46:36;;;;;;;2.75;2.10;;;34.90;82.70;;;;;;4916729;29;20205;-70
2023/06/25 09:49:04;;;;;;;3.13;2.00;;;34.60;82.60;;;;;;4916573;29;20214;-71
2023/06/25 09:51:37;;;;;;;2.92;2.00;;;34.80;81.30;;;;;;4916625;29;20209;-70
2023/06/25 09:54:07;;;;;;;5.18;2.20;;;34.90;80.50;;;;;;4916460;29;20205;-70
2023/06/25 09:56:35;;;;;;;3.55;2.13;;;34.70;80.50;;;;;;4916608;29;20469;-72
2023/06/25 09:59:03;;;;;;;2.53;2.15;;;34.20;82.10;;;;;;4916831;29;20205;-72
2023/06/25 10:01:30;;;;;;;2.85;2.20;;;34.30;82.50;;;;;;4916695;29;20209;-74
2023/06/25 10:03:57;;;;;;;2.92;2.22;;;33.90;80.20;;;;;;4916926;29;20205;-74
2023/06/25 10:06:25;;;;;;;3.05;2.42;;;33.50;81.30;;;;;;4916820;29;20218;-76
2023/06/25 10:08:52;;;;;;;2.47;2.05;;;32.80;81.80;;;;;;4917108;29;20583;-74
2023/06/25 10:11:19;;;;;;;3.30;2.38;;;32.60;81.60;;;;;;4909652;29;20212;-76
2023/06/25 10:13:48;;;;;;;3.67;2.30;;;32.80;82.10;;;;;;4916400;29;20560;-73
2023/06/25 10:16:19;;;;;;;2.30;2.00;;;32.90;84.30;;;;;;4908848;29;20229;-73
2023/06/25 10:18:47;;;;;;;3.25;2.20;;;32.90;85.90;;;;;;4916768;29;20213;-73
2023/06/25 10:21:20;;;;;;;3.47;2.30;;;32.80;82.70;;;;;;4916179;29;20241;-73
2023/06/25 10:23:57;;;;;;;3.05;2.10;;;32.60;82.70;;;;;;4916400;29;20206;-72
2023/06/25 10:26:28;;;;;;;2.95;2.22;;;32.20;84.90;;;;;;4916517;29;20296;-72
2023/06/25 10:28:56;;;;;;;3.47;2.47;;;32.00;83.80;;;;;;4916399;29;20568;-72
2023/06/25 10:31:23;;;;;;;3.30;2.13;;;32.00;86.80;;;;;;4916452;29;20252;-73
2023/06/25 10:33:50;;;;;;;2.95;2.00;;;31.80;82.90;;;;;;4916413;29;20219;-72
2023/06/25 10:36:25;;;;;;;3.17;2.20;;;31.70;82.50;;;;;;4916399;29;20629;-73
2023/06/25 10:38:52;;;;;;;2.60;2.08;;;31.70;82.40;;;;;;4917049;29;20213;-72
2023/06/25 10:41:28;;;;;;;2.88;2.20;;;31.80;82.50;;;;;;4917571;29;20224;-72
2023/06/25 10:43:55;;;;;;;3.35;2.03;;;31.80;85.30;;;;;;4917481;29;20205;-72
2023/06/25 10:46:28;;;;;;;3.05;2.25;;;31.60;85.30;;;;;;4916539;29;20238;-72
2023/06/25 10:48:55;;;;;;;3.05;2.25;;;31.40;84.50;;;;;;4916474;29;20245;-72
2023/06/25 10:51:23;;;;;;;4.63;2.08;;;31.40;83.70;;;;;;4916110;29;20637;-72
2023/06/25 10:53:50;;;;;;;2.83;2.00;;;31.50;82.40;;;;;;4916217;29;20206;-72
2023/06/25 10:56:18;;;;;;;4.25;2.40;;;31.60;85.20;;;;;;4916338;29;20233;-72
2023/06/25 10:58:46;;;;;;;3.42;2.60;;;31.50;84.10;;;;;;4916156;29;20236;-72
2023/06/25 11:01:13;;;;;;;2.95;2.25;;;31.30;83.70;;;;;;4915908;29;20721;-72
2023/06/25 11:03:40;;;;;;;3.63;2.45;;;31.40;85.90;;;;;;4916259;29;20210;-72
2023/06/25 11:06:07;;;;;;;3.67;2.47;;;31.40;83.90;;;;;;4915993;29;20220;-72
2023/06/25 11:08:34;;;;;;;3.50;2.28;;;31.40;84.90;;;;;;4919513;29;20220;-73
2023/06/25 11:11:03;;;;;;;3.33;2.20;;;31.60;85.20;;;;;;4919858;29;20212;-72
2023/06/25 11:13:32;;;;;;;4.35;2.65;;;31.70;84.30;;;;;;4920133;29;20448;-72
2023/06/25 11:16:00;;;;;;;4.97;2.38;;;31.60;85.90;;;;;;4919626;29;20236;-73
2023/06/25 11:18:27;;;;;;;3.90;2.33;;;31.80;85.80;;;;;;4919764;29;20214;-73
2023/06/25 11:20:58;;;;;;;5.78;2.28;;;31.80;86.40;;;;;;4919496;29;20210;-74
2023/06/25 11:23:25;;;;;;;5.68;2.30;;;32.00;87.70;;;;;;4919355;29;20229;-72
2023/06/25 11:25:52;;;;;;;3.83;2.50;;;32.20;86.70;;;;;;4919277;29;20653;-72
2023/06/25 11:28:19;;;;;;;3.00;2.20;;;32.20;84.00;;;;;;4919535;29;20216;-72
2023/06/25 11:30:46;;;;;;;4.32;2.60;;;32.20;84.10;;;;;;4919058;29;20210;-72
2023/06/25 11:33:15;;;;;;;4.88;2.15;;;32.10;81.50;;;;;;4919406;29;20232;-71
2023/06/25 11:35:42;;;;;;;3.60;2.30;;;32.00;84.70;;;;;;4919074;29;20210;-71
2023/06/25 11:38:10;;;;;;;5.32;2.60;;;31.80;81.60;;;;;;4919315;29;20673;-72
2023/06/25 11:40:38;;;;;;;3.30;2.50;;;31.80;84.90;;;;;;4919559;29;20214;-72
2023/06/25 11:43:05;;;;;;;2.75;2.10;;;31.80;87.00;;;;;;4919426;29;20720;-72
2023/06/25 11:45:42;;;;;;;3.67;2.22;;;31.90;86.80;;;;;;4919415;29;20736;-72
2023/06/25 11:48:14;;;;;;;2.53;1.90;;;31.80;85.00;;;;;;4919206;29;20209;-72
2023/06/25 11:50:42;;;;;;;3.53;2.35;;;31.80;86.90;;;;;;4919534;29;20210;-71
2023/06/25 11:53:09;;;;;;;3.00;2.10;;;31.80;86.90;;;;;;4919094;29;20230;-72
2023/06/25 11:55:36;;;;;;;3.72;2.00;;;31.60;82.00;;;;;;4919208;29;20241;-71
2023/06/25 11:58:03;;;;;;;3.00;2.15;;;31.40;85.90;;;;;;4918931;29;20641;-72
2023/06/25 12:00:30;;;;;;;2.28;1.95;;;31.50;84.90;;;;;;4915131;29;20212;-72
2023/06/25 12:02:56;;;;;;;3.13;2.03;;;31.50;84.40;;;;;;4915506;29;20235;-73
2023/06/25 12:05:25;;;;;;;3.20;2.30;;;31.60;87.10;;;;;;4918646;29;20309;-72
2023/06/25 12:07:52;;;;;;;2.92;2.33;;;31.70;84.00;;;;;;4918851;29;20217;-72
2023/06/25 12:10:19;;;;;;;2.38;1.88;;;31.60;83.80;;;;;;4914945;29;20683;-73
2023/06/25 12:12:47;;;;;;;2.47;1.80;;;31.60;81.70;;;;;;4899863;29;20317;-72
2023/06/25 12:15:14;;;;;;;3.08;2.30;;;31.60;85.70;;;;;;4902681;29;20572;-72
2023/06/25 12:17:42;;;;;;;3.47;2.25;;;31.50;84.50;;;;;;4918311;29;20288;-73
2023/06/25 12:20:09;;;;;;;2.55;2.20;;;31.60;85.00;;;;;;4918282;29;20213;-73
2023/06/25 12:22:37;;;;;;;2.70;2.00;;;31.60;82.30;;;;;;4918463;29;20244;-72
2023/06/25 12:25:04;;;;;;;3.28;2.45;;;31.50;84.80;;;;;;4918185;29;20673;-72
2023/06/25 12:27:32;;;;;;;2.33;1.80;;;31.60;83.70;;;;;;4918823;29;20213;-72
2023/06/25 12:29:59;;;;;;;2.42;2.03;;;31.60;85.00;;;;;;4918375;29;20244;-73
2023/06/25 12:32:26;;;;;;;2.13;1.83;;;31.80;82.60;;;;;;4918503;29;20235;-72
2023/06/25 12:34:53;;;;;;;3.08;2.20;;;31.80;85.70;;;;;;4918310;29;20220;-73
2023/06/25 12:37:19;;;;;;;3.15;2.38;;;32.00;84.70;;;;;;4918274;29;20704;-73
2023/06/25 12:39:48;;;;;;;2.88;2.20;;;32.20;87.60;;;;;;4918365;29;20220;-73
2023/06/25 12:42:15;;;;;;;2.28;1.83;;;32.30;82.20;;;;;;4918133;29;20229;-73
2023/06/25 12:44:41;;;;;;;2.83;2.10;;;32.40;84.20;;;;;;4918431;29;20219;-73
2023/06/25 12:47:08;;;;;;;2.83;2.10;;;32.30;84.70;;;;;;4918183;29;20210;-73
2023/06/25 12:49:35;;;;;;;2.72;2.08;;;32.20;84.20;;;;;;4917991;29;20376;-73
2023/06/25 12:52:02;;;;;;;3.25;2.30;;;32.20;84.30;;;;;;4917243;29;20238;-73
2023/06/25 12:54:29;;;;;;;2.47;2.00;;;32.00;84.30;;;;;;4917664;29;20216;-72
2023/06/25 12:56:57;;;;;;;2.58;2.17;;;31.80;85.20;;;;;;4913696;29;20230;-74
2023/06/25 12:59:24;;;;;;;3.20;2.30;;;31.70;83.90;;;;;;4899336;29;20578;-73
2023/06/25 13:01:55;;;;;;;3.10;2.13;;;31.60;84.20;;;;;;4914155;29;20230;-72
2023/06/25 13:04:22;;;;;;;2.78;2.13;;;31.40;83.80;;;;;;4901020;29;20369;-73
2023/06/25 13:06:49;;;;;;;2.70;2.08;;;31.50;83.30;;;;;;4917596;29;20221;-74
2023/06/25 13:09:16;;;;;;;2.85;2.20;;;31.40;84.50;;;;;;4917833;29;20205;-74
2023/06/25 13:11:43;;;;;;;2.78;2.20;;;31.40;83.70;;;;;;4917354;29;20230;-72
2023/06/25 13:14:11;;;;;;;5.85;2.30;;;31.20;84.00;;;;;;4917611;29;20205;-72
2023/06/25 13:16:38;;;;;;;2.83;1.98;;;31.40;87.80;;;;;;4917074;29;20715;-73
2023/06/25 13:19:05;;;;;;;2.42;2.08;;;31.60;86.30;;;;;;4917550;29;20214;-73
2023/06/25 13:21:31;;;;;;;2.60;2.20;;;31.80;85.50;;;;;;4916911;29;20691;-72
2023/06/25 13:23:58;;;;;;;2.17;1.90;;;31.80;84.00;;;;;;4917529;29;20216;-73
2023/06/25 13:26:26;;;;;;;3.40;2.25;;;31.70;84.20;;;;;;4917629;29;20276;-72
2023/06/25 13:28:54;;;;;;;2.78;2.00;;;31.50;85.20;;;;;;4916872;29;20213;-72
2023/06/25 13:31:22;;;;;;;3.30;2.08;;;31.50;84.50;;;;;;4917293;29;20268;-71
2023/06/25 13:33:49;;;;;;;2.65;1.83;;;31.50;85.00;;;;;;4917672;29;20525;-71
2023/06/25 13:36:16;;;;;;;2.13;1.83;;;31.60;85.70;;;;;;4917476;29;20248;-72
2023/06/25 13:38:43;;;;;;;4.35;1.98;;;31.50;83.60;;;;;;4917550;29;20213;-72
2023/06/25 13:41:10;;;;;;;3.55;1.88;;;31.50;85.30;;;;;;4917370;29;20205;-70
2023/06/25 13:43:36;;;;;;;2.83;2.00;;;31.50;83.90;;;;;;4917587;29;20257;-71
2023/06/25 13:46:03;;;;;;;2.83;2.03;;;31.50;85.00;;;;;;4917600;29;20300;-71
2023/06/25 13:48:32;;;;;;;2.65;2.08;;;31.60;85.20;;;;;;4917691;29;20219;-72
2023/06/25 13:51:00;;;;;;;2.90;1.98;;;31.60;84.50;;;;;;4917554;29;20212;-71
2023/06/25 13:53:27;;;;;;;2.50;1.92;;;31.70;86.00;;;;;;4917155;29;20233;-71
2023/06/25 13:55:54;;;;;;;2.17;1.85;;;31.60;84.30;;;;;;4917188;29;20205;-71
2023/06/25 13:58:21;;;;;;;2.67;2.10;;;31.70;86.40;;;;;;4917243;29;20269;-70
2023/06/25 14:00:50;;;;;;;3.33;2.10;;;31.90;85.40;;;;;;4917195;29;20221;-70
2023/06/25 14:03:17;;;;;;;2.17;1.98;;;32.00;84.50;;;;;;4957589;23;20607;-79
2023/06/25 14:05:46;;;;;;;2.70;1.92;;;32.00;83.80;;;;;;4955324;29;20204;-79
2023/06/25 14:08:14;;;;;;;2.60;2.10;;;31.80;83.70;;;;;;4955226;29;20583;-81
2023/06/25 14:10:42;;;;;;;2.85;2.00;;;31.80;83.70;;;;;;4955825;29;20210;-80
2023/06/25 14:13:10;;;;;;;2.65;2.08;;;31.50;83.80;;;;;;4955490;29;20324;-80
2023/06/25 14:15:37;;;;;;;3.65;2.53;;;31.40;84.30;;;;;;4955353;29;20540;-79
2023/06/25 14:18:05;;;;;;;3.47;2.10;;;31.30;85.80;;;;;;4955296;29;20232;-79
2023/06/25 14:20:31;;;;;;;3.13;2.28;;;31.30;84.60;;;;;;4955346;29;20262;-79
2023/06/25 14:23:00;;;;;;;3.65;2.00;;;31.40;84.30;;;;;;4954932;29;20234;-79
2023/06/25 14:25:28;;;;;;;2.60;2.10;;;31.40;83.00;;;;;;4955215;29;20212;-77
2023/06/25 14:27:55;;;;;;;2.08;1.70;;;31.40;83.60;;;;;;4955174;29;20214;-80
2023/06/25 14:30:22;;;;;;;2.60;2.20;;;31.50;83.20;;;;;;4955410;29;20207;-79
2023/06/25 14:32:49;;;;;;;2.50;1.83;;;31.60;84.40;;;;;;4955169;29;20231;-78
2023/06/25 14:35:16;;;;;;;2.90;2.00;;;31.60;83.20;;;;;;4955412;29;20298;-79
2023/06/25 14:37:42;;;;;;;2.63;1.83;;;31.60;85.00;;;;;;4955205;29;20239;-81
2023/06/25 14:40:11;;;;;;;2.83;2.25;;;31.60;83.80;;;;;;4955617;28;20215;-80
2023/06/25 14:42:38;;;;;;;2.63;1.83;;;31.70;83.60;;;;;;4958667;29;20624;-80
2023/06/25 14:45:05;;;;;;;2.35;1.98;;;31.70;82.00;;;;;;4959677;29;20562;-80
2023/06/25 14:47:33;;;;;;;3.15;2.05;;;31.70;83.10;;;;;;4960082;29;20288;-79
2023/06/25 14:50:00;;;;;;;2.13;1.80;;;31.70;82.90;;;;;;4960734;29;20203;-80
2023/06/25 14:52:27;;;;;;;2.90;2.13;;;31.80;82.50;;;;;;4960507;29;20238;-80
2023/06/25 14:54:54;;;;;;;2.60;2.05;;;31.80;84.20;;;;;;4959022;29;20311;-80
2023/06/25 14:57:22;;;;;;;2.83;1.83;;;32.00;85.90;;;;;;4958662;29;20598;-78
2023/06/25 14:59:49;;;;;;;3.55;2.15;;;32.00;84.50;;;;;;4958765;29;20212;-80
2023/06/25 15:02:16;;;;;;;2.30;2.08;;;32.00;84.40;;;;;;4958415;29;20798;-80
2023/06/25 15:04:47;;;;;;;2.55;1.90;;;32.00;85.30;;;;;;4959045;29;20566;-80
2023/06/25 15:07:14;;;;;;;2.45;1.83;;;32.10;84.40;;;;;;4958453;29;20204;-81
2023/06/25 15:09:41;;;;;;;2.63;1.83;;;32.00;84.60;;;;;;4958755;29;20298;-79
2023/06/25 15:12:08;;;;;;;4.32;2.13;;;31.90;83.50;;;;;;4958993;29;20234;-78
2023/06/25 15:14:36;;;;;;;2.78;2.13;;;31.90;83.50;;;;;;4959226;29;20291;-80
2023/06/25 15:17:04;;;;;;;2.20;1.80;;;31.90;84.10;;;;;;4959412;29;20318;-80
2023/06/25 15:19:32;;;;;;;3.00;2.22;;;31.90;82.70;;;;;;4958792;29;20578;-78
2023/06/25 15:21:59;;;;;;;2.85;1.90;;;31.90;83.10;;;;;;4958334;29;20235;-79
2023/06/25 15:24:26;;;;;;;2.10;1.70;;;31.90;83.50;;;;;;4958992;29;20294;-80
2023/06/25 15:26:53;;;;;;;2.53;2.03;;;31.80;83.10;;;;;;4958892;29;20224;-77
2023/06/25 15:29:19;;;;;;;3.78;2.00;;;32.00;85.20;;;;;;4958439;29;20742;-79
2023/06/25 15:31:48;;;;;;;3.20;1.88;;;32.00;84.10;;;;;;4958300;29;20319;-77
2023/06/25 15:34:14;;;;;;;2.47;2.10;;;31.80;83.00;;;;;;4958065;29;20302;-76
2023/06/25 15:36:42;;;;;;;2.17;1.77;;;31.80;83.20;;;;;;4958095;29;20204;-80
2023/06/25 15:39:09;;;;;;;2.50;2.00;;;31.70;82.80;;;;;;4958484;29;20259;-80
2023/06/25 15:41:38;;;;;;;3.15;2.15;;;31.70;81.60;;;;;;4958560;29;20234;-78
2023/06/25 15:44:05;;;;;;;2.88;2.08;;;31.70;84.40;;;;;;4958139;29;20247;-80
2023/06/25 15:46:36;;;;;;;2.40;1.88;;;31.70;83.60;;;;;;4958928;29;20673;-80
2023/06/25 15:49:04;;;;;;;3.13;2.28;;;31.80;82.90;;;;;;4959332;29;20219;-80
2023/06/25 15:51:31;;;;;;;2.97;1.80;;;31.80;82.50;;;;;;4958232;29;20211;-76
2023/06/25 15:53:58;;;;;;;2.95;2.03;;;31.80;83.90;;;;;;4958025;28;20208;-79
2023/06/25 15:56:24;;;;;;;3.85;2.38;;;31.80;84.10;;;;;;4957860;29;20216;-77
2023/06/25 15:58:53;;;;;;;2.97;1.73;;;31.80;84.40;;;;;;4958230;29;20239;-77
2023/06/25 16:01:20;;;;;;;3.05;1.90;;;31.70;83.10;;;;;;4957782;29;20208;-80
2023/06/25 16:03:47;;;;;;;2.10;1.75;;;31.70;83.80;;;;;;4958258;29;20219;-79
2023/06/25 16:06:15;;;;;;;2.28;1.88;;;31.60;84.10;;;;;;4957721;29;20302;-80
2023/06/25 16:08:42;;;;;;;2.25;1.75;;;31.70;84.60;;;;;;4957501;29;20302;-80
2023/06/25 16:11:08;;;;;;;2.60;2.00;;;31.80;83.10;;;;;;4957209;29;20212;-77
2023/06/25 16:13:35;;;;;;;2.80;1.90;;;31.60;84.10;;;;;;4956843;29;20318;-78
2023/06/25 16:16:02;;;;;;;2.20;1.83;;;31.50;83.40;;;;;;4956892;29;20203;-78
2023/06/25 16:18:30;;;;;;;2.78;1.95;;;31.40;83.40;;;;;;4956982;29;20330;-79
2023/06/25 16:20:57;;;;;;;2.78;2.10;;;31.50;83.70;;;;;;4956976;29;20215;-75
2023/06/25 16:23:25;;;;;;;3.97;2.03;;;31.50;85.70;;;;;;4957016;29;20744;-75
2023/06/25 16:25:52;;;;;;;2.45;1.90;;;31.50;85.10;;;;;;4956874;29;20208;-76
2023/06/25 16:28:18;;;;;;;2.10;1.83;;;31.60;84.30;;;;;;4956996;29;20646;-74
2023/06/25 16:30:45;;;;;;;2.45;1.90;;;31.50;85.60;;;;;;4956612;29;20207;-76
2023/06/25 16:33:12;;;;;;;3.13;2.30;;;31.60;85.90;;;;;;4956334;29;20232;-79
2023/06/25 16:35:39;;;;;;;2.90;2.00;;;31.60;85.80;;;;;;4955991;29;20218;-77
2023/06/25 16:38:06;;;;;;;2.88;1.90;;;31.60;84.40;;;;;;4954739;29;20246;-78
2023/06/25 16:40:34;;;;;;;2.83;2.08;;;31.60;85.00;;;;;;4956541;29;20299;-80
2023/06/25 16:43:01;;;;;;;2.38;1.75;;;31.60;86.40;;;;;;4956425;29;20230;-79
2023/06/25 16:45:27;;;;;;;2.88;1.85;;;31.60;83.70;;;;;;4956211;29;20300;-78
2023/06/25 16:47:54;;;;;;;1.90;1.55;;;31.60;84.10;;;;;;4957028;29;20218;-80
2023/06/25 16:50:21;;;;;;;2.35;1.70;;;31.60;83.80;;;;;;4956768;29;20214;-78
2023/06/25 16:52:48;;;;;;;2.67;1.90;;;31.50;82.60;;;;;;4956383;29;20228;-76
2023/06/25 16:55:15;;;;;;;2.63;1.80;;;31.50;84.70;;;;;;4956402;29;20672;-79
2023/06/25 16:57:43;;;;;;;2.78;2.08;;;31.50;85.00;;;;;;4956106;29;20242;-78
2023/06/25 17:00:11;;;;;;;2.75;2.00;;;31.50;86.10;;;;;;4956193;29;20579;-79
2023/06/25 17:02:40;;;;;;;3.55;1.98;;;31.50;84.20;;;;;;4958302;29;20236;-79
2023/06/25 17:05:08;;;;;;;2.50;1.80;;;31.50;84.00;;;;;;4957675;28;20208;-79
2023/06/25 17:07:35;;;;;;;2.67;2.08;;;31.50;85.30;;;;;;4957657;29;20353;-79
2023/06/25 17:10:02;;;;;;;2.33;1.80;;;31.50;87.30;;;;;;4957971;29;20214;-79
2023/06/25 17:12:29;;;;;;;3.13;2.00;;;31.50;88.30;;;;;;4957955;29;20228;-80
2023/06/25 17:14:58;;;;;;;3.28;2.20;;;31.50;87.10;;;;;;4957631;29;20303;-79
2023/06/25 17:17:24;;;;;;;2.60;1.80;;;31.40;86.30;;;;;;4957458;29;20214;-79
2023/06/25 17:19:51;;;;;;;2.45;1.83;;;31.40;87.80;;;;;;4957410;29;20234;-79
2023/06/25 17:22:18;;;;;;;2.60;2.05;;;31.40;87.80;;;;;;4956375;29;20667;-78
2023/06/25 17:24:53;;;;;;;2.45;1.83;;;31.40;88.40;;;;;;5152707;27;20604;-78
2023/06/25 17:27:20;;;;;;;2.33;1.92;;;31.50;87.70;;;;;;5152420;27;20206;-79
2023/06/25 17:29:46;;;;;;;6.35;2.30;;;31.40;88.10;;;;;;5152659;27;20200;-79
2023/06/25 17:32:13;;;;;;;2.00;1.80;;;31.30;87.70;;;;;;5152624;27;20306;-79
2023/06/25 17:34:40;;;;;;;2.67;1.75;;;31.20;89.00;;;;;;5152033;27;20208;-79
2023/06/25 17:37:12;;;;;;;2.22;2.00;;;31.30;88.30;;;;;;5152105;27;20202;-78
2023/06/25 17:39:40;;;;;;;2.13;1.92;;;31.30;89.20;;;;;;5151968;27;20283;-78
2023/06/25 17:42:09;;;;;;;2.25;1.90;;;31.20;88.30;;;;;;5152090;27;20743;-80
2023/06/25 17:44:37;;;;;;;4.55;1.98;;;31.20;88.60;;;;;;5151916;27;20331;-80
2023/06/25 17:47:04;;;;;;;3.60;2.55;;;31.10;90.00;;;;;;5151755;27;20646;-79
2023/06/25 17:49:31;;;;;;;2.88;2.30;;;31.20;89.60;;;;;;5152147;27;20676;-79
2023/06/25 17:51:58;;;;;;;2.65;2.08;;;31.20;90.20;;;;;;5151866;27;20269;-80
2023/06/25 17:54:25;;;;;;;2.92;2.20;;;31.20;90.10;;;;;;5152059;27;20211;-79
2023/06/25 17:56:52;;;;;;;2.55;2.00;;;31.30;89.80;;;;;;5151930;27;20214;-78
2023/06/25 17:59:20;;;;;;;3.30;2.00;;;31.10;89.10;;;;;;5151882;27;20204;-79
2023/06/25 18:01:50;;;;;;;2.65;1.88;;;31.10;90.00;;;;;;5134078;27;20583;-77
2023/06/25 18:04:17;;;;;;;3.13;2.08;;;30.90;89.90;;;;;;5140814;27;20229;-78
2023/06/25 18:06:44;;;;;;;2.90;2.13;;;30.90;90.30;;;;;;5134382;27;20547;-77
2023/06/25 18:09:11;;;;;;;2.53;2.00;;;30.80;90.80;;;;;;5132568;27;20199;-77
2023/06/25 18:11:38;;;;;;;3.70;2.10;;;30.80;90.60;;;;;;5138201;27;20587;-77
2023/06/25 18:14:05;;;;;;;3.30;2.05;;;30.70;90.50;;;;;;5134682;27;20322;-75
2023/06/25 18:16:33;;;;;;;2.40;1.92;;;30.80;90.70;;;;;;5144059;27;20698;-75
2023/06/25 18:19:00;;;;;;;2.83;2.10;;;30.70;90.80;;;;;;5136593;27;20660;-76
2023/06/25 18:21:27;;;;;;;2.85;2.20;;;30.60;91.30;;;;;;5130314;27;20220;-76
2023/06/25 18:23:54;;;;;;;4.97;2.30;;;30.50;91.40;;;;;;5143520;27;20585;-75
2023/06/25 18:26:20;;;;;;;2.35;1.80;;;30.40;91.50;;;;;;5143329;27;20211;-76
2023/06/25 18:28:47;;;;;;;4.45;2.00;;;30.40;91.90;;;;;;5142911;27;20205;-76
2023/06/25 18:31:14;;;;;;;2.92;2.25;;;30.40;91.50;;;;;;5144526;27;20204;-76
2023/06/25 18:33:42;;;;;;;3.40;2.17;;;30.40;91.60;;;;;;5149614;27;20196;-76
2023/06/25 18:36:09;;;;;;;3.58;2.60;;;30.30;91.90;;;;;;5123174;27;20205;-76
2023/06/25 18:38:36;;;;;;;2.58;2.10;;;30.20;91.80;;;;;;5135999;27;20654;-76
2023/06/25 18:41:03;;;;;;;3.17;1.98;;;30.10;92.20;;;;;;5136194;27;20200;-75
2023/06/25 18:43:29;;;;;;;3.15;2.20;;;30.10;93.00;;;;;;5136244;27;20233;-76
2023/06/25 18:45:56;;;;;;;3.65;1.98;;;30.00;92.70;;;;;;5136247;27;20197;-75
2023/06/25 18:48:24;;;;;;;4.07;2.00;;;29.90;92.70;;;;;;5136220;27;20677;-77
2023/06/25 18:50:53;;;;;;;2.90;2.20;;;29.90;92.60;;;;;;5136470;27;20204;-76
2023/06/25 18:53:20;;;;;;;3.08;2.17;;;29.70;92.90;;;;;;5136057;27;20584;-76
2023/06/25 18:55:48;;;;;;;2.80;2.00;;;29.60;93.60;;;;;;5136448;27;20282;-77
2023/06/25 18:58:15;;;;;;;2.83;2.10;;;29.50;93.80;;;;;;5136350;27;20205;-76
2023/06/25 19:00:43;;;;;;;2.78;2.05;;;29.50;93.90;;;;;;5136310;27;20201;-77
2023/06/25 19:03:10;;;;;;;3.15;2.50;;;29.50;94.20;;;;;;5135747;27;20682;-76
2023/06/25 19:05:40;;;;;;;2.90;2.30;;;29.40;94.20;;;;;;5136777;27;20284;-77
2023/06/25 19:08:08;;;;;;;3.15;2.40;;;29.20;94.60;;;;;;5133976;27;20193;-77
2023/06/25 19:10:35;;;;;;;2.78;2.10;;;29.10;95.00;;;;;;5125686;27;20233;-77
2023/06/25 19:13:01;;;;;;;2.88;2.10;;;29.00;95.20;;;;;;5126929;27;20219;-76
2023/06/25 19:15:28;;;;;;;3.85;2.20;;;29.00;95.30;;;;;;5132914;27;20197;-77
2023/06/25 19:17:55;;;;;;;3.30;2.33;;;28.90;95.40;;;;;;5137174;27;20209;-76
2023/06/25 19:20:22;;;;;;;3.28;2.10;;;28.70;95.70;;;;;;5137730;27;20197;-76
2023/06/25 19:22:49;;;;;;;3.45;2.30;;;28.60;96.00;;;;;;5136012;27;20311;-76
2023/06/25 19:25:19;;;;;;;3.33;2.47;;;28.50;96.30;;;;;;5135246;27;20301;-76
2023/06/25 19:27:47;;;;;;;3.78;2.83;;;28.50;96.80;;;;;;5137096;27;20205;-77
2023/06/25 19:30:15;;;;;;;3.42;2.20;;;28.40;96.80;;;;;;5136611;27;20254;-76
2023/06/25 19:32:41;;;;;;;3.55;2.40;;;28.30;97.20;;;;;;5135722;27;20744;-76
2023/06/25 19:35:08;;;;;;;2.85;2.33;;;28.20;97.30;;;;;;5132990;27;20197;-76
2023/06/25 19:37:35;;;;;;;3.85;2.60;;;28.20;97.50;;;;;;5123071;27;20194;-76
2023/06/25 19:40:03;;;;;;;3.20;2.13;;;28.10;98.10;;;;;;5130560;27;20231;-76
2023/06/25 19:42:32;;;;;;;2.67;2.13;;;28.00;98.00;;;;;;5134967;27;20221;-75
2023/06/25 19:45:00;;;;;;;3.55;1.92;;;27.90;98.30;;;;;;5135066;27;20698;-75
2023/06/25 19:47:26;;;;;;;3.08;2.33;;;27.70;98.70;;;;;;5134052;27;20211;-76
2023/06/25 19:49:53;;;;;;;3.42;2.17;;;27.60;98.90;;;;;;5135545;27;20292;-76
2023/06/25 19:52:21;;;;;;;3.10;2.30;;;27.50;99.30;;;;;;5134795;27;20252;-76
2023/06/25 19:54:51;;;;;;;5.45;2.40;;;27.40;99.50;;;;;;5134946;27;20671;-77
2023/06/25 19:57:17;;;;;;;3.40;2.50;;;27.30;99.50;;;;;;5134641;27;20200;-76
2023/06/25 19:59:46;;;;;;;5.28;2.50;;;27.20;99.90;;;;;;5135076;27;20203;-77
2023/06/25 20:02:13;;;;;;;4.25;2.70;;;27.10;99.90;;;;;;5135157;27;20209;-77
2023/06/25 20:04:40;;;;;;;3.55;2.40;;;27.00;99.90;;;;;;5134890;27;20224;-77
2023/06/25 20:07:07;;;;;;;3.47;2.45;;;26.90;99.90;;;;;;5134414;27;20197;-77
2023/06/25 20:09:34;;;;;;;4.85;2.30;;;26.70;99.90;;;;;;5134298;27;20537;-76
2023/06/25 20:12:01;;;;;;;4.20;2.58;;;26.60;99.90;;;;;;5134281;27;20308;-77
2023/06/25 20:14:29;;;;;;;3.58;2.30;;;26.40;99.90;;;;;;5134221;27;20205;-77
2023/06/25 20:16:57;;;;;;;5.10;2.45;;;26.40;99.90;;;;;;5134368;27;20258;-77
2023/06/25 20:19:24;;;;;;;3.80;2.15;;;26.30;99.90;;;;;;5134332;27;20211;-77
2023/06/25 20:21:52;;;;;;;3.85;2.45;;;26.20;99.90;;;;;;5133460;27;20235;-77
2023/06/25 20:24:19;;;;;;;3.00;1.80;;;26.20;99.90;;;;;;5133989;27;20224;-76
2023/06/25 20:26:45;;;;;;;4.15;2.38;;;26.10;99.90;;;;;;5133562;27;20566;-75
2023/06/25 20:29:12;;;;;;;3.30;2.28;;;26.00;99.90;;;;;;5134454;27;20205;-77
2023/06/25 20:31:39;;;;;;;2.90;2.20;;;25.90;99.90;;;;;;5134006;27;20220;-77
2023/06/25 20:34:07;;;;;;;3.00;2.45;;;25.90;99.90;;;;;;5134039;27;20201;-77
2023/06/25 20:36:34;;;;;;;2.95;2.40;;;25.80;99.90;;;;;;5133604;27;20200;-76
2023/06/25 20:39:01;;;;;;;4.07;2.63;;;25.70;99.90;;;;;;5134495;27;20201;-77
2023/06/25 20:41:28;;;;;;;2.55;1.92;;;25.70;99.90;;;;;;5120681;27;20207;-76
2023/06/25 20:43:55;;;;;;;3.30;2.28;;;25.60;99.90;;;;;;5133863;27;20233;-75
2023/06/25 20:46:22;;;;;;;3.33;2.33;;;25.50;99.90;;;;;;5134425;27;20204;-77
2023/06/25 20:48:50;;;;;;;3.10;2.28;;;25.60;99.90;;;;;;5133372;27;20261;-76
2023/06/25 20:51:18;;;;;;;3.80;2.47;;;25.50;99.90;;;;;;5133915;27;20560;-77
2023/06/25 20:53:45;;;;;;;2.78;2.33;;;25.50;99.90;;;;;;5133636;27;20288;-76
2023/06/25 20:56:11;;;;;;;2.70;2.20;;;25.30;99.90;;;;;;5133534;27;20209;-76